createdAt,value
2018-08-27T00:00:29.945Z,51.40
2018-08-27T00:02:58.303Z,51.50
2018-08-27T00:05:26.685Z,52.40
2018-08-27T00:07:55.185Z,50.40
2018-08-27T00:10:23.851Z,50.10
2018-08-27T00:12:52.439Z,50.60
2018-08-27T00:15:21.019Z,50.40
2018-08-27T00:17:49.597Z,50.30
2018-08-27T00:20:18.083Z,50.00
2018-08-27T00:22:47.014Z,50.10
2018-08-27T00:25:15.703Z,49.70
2018-08-27T00:27:44.287Z,50.10
2018-08-27T00:30:12.662Z,50.10
2018-08-27T00:32:41.299Z,50.10
2018-08-27T00:35:09.705Z,50.10
2018-08-27T00:37:38.078Z,50.50
2018-08-27T00:40:06.535Z,50.90
2018-08-27T00:42:34.951Z,50.80
2018-08-27T00:45:03.493Z,51.10
2018-08-27T00:47:31.935Z,51.30
2018-08-27T00:50:00.386Z,51.60
2018-08-27T00:52:28.772Z,51.90
2018-08-27T00:54:57.132Z,51.70
2018-08-27T00:57:25.527Z,51.60
2018-08-27T00:59:54.066Z,52.00
2018-08-27T01:02:22.578Z,51.40
2018-08-27T01:04:51.030Z,51.40
2018-08-27T01:07:19.497Z,51.20
2018-08-27T01:09:47.989Z,51.30
2018-08-27T01:12:16.624Z,51.40
2018-08-27T01:14:45.033Z,51.50
2018-08-27T01:17:13.600Z,51.50
2018-08-27T01:19:42.020Z,51.60
2018-08-27T01:22:10.516Z,51.80
2018-08-27T01:24:38.980Z,51.80
2018-08-27T01:27:07.352Z,51.60
2018-08-27T01:29:35.717Z,51.90
2018-08-27T01:32:09.537Z,51.80
2018-08-27T01:34:37.918Z,52.30
2018-08-27T01:37:06.338Z,52.40
2018-08-27T01:39:35.560Z,52.50
2018-08-27T01:42:03.916Z,52.50
2018-08-27T01:44:32.334Z,52.80
2018-08-27T01:47:00.739Z,52.50
2018-08-27T01:49:29.086Z,52.50
2018-08-27T01:51:57.515Z,52.70
2018-08-27T01:54:25.965Z,52.80
2018-08-27T01:56:54.355Z,52.90
2018-08-27T01:59:22.695Z,53.00
2018-08-27T02:01:51.097Z,53.30
2018-08-27T02:04:19.577Z,53.20
2018-08-27T02:06:53.442Z,53.00
2018-08-27T02:09:22.134Z,53.30
2018-08-27T02:11:51.006Z,54.30
2018-08-27T02:14:19.428Z,53.70
2018-08-27T02:16:47.829Z,54.00
2018-08-27T02:19:16.393Z,54.30
2018-08-27T02:21:44.808Z,54.60
2018-08-27T02:24:13.363Z,54.70
2018-08-27T02:26:41.802Z,54.70
2018-08-27T02:29:10.325Z,55.20
2018-08-27T02:31:38.698Z,55.70
2018-08-27T02:34:07.331Z,56.00
2018-08-27T02:36:36.315Z,56.10
2018-08-27T02:39:07.381Z,56.30
2018-08-27T02:41:35.702Z,56.20
2018-08-27T02:44:04.178Z,56.40
2018-08-27T02:46:32.622Z,56.60
2018-08-27T02:49:01.160Z,56.80
2018-08-27T02:51:29.586Z,56.70
2018-08-27T02:53:58.202Z,56.60
2018-08-27T02:56:26.527Z,56.90
2018-08-27T02:58:55.129Z,57.60
2018-08-27T03:01:23.536Z,58.50
2018-08-27T03:03:52.119Z,59.80
2018-08-27T03:06:20.610Z,61.00
2018-08-27T03:08:49.114Z,62.50
2018-08-27T03:11:17.498Z,63.90
2018-08-27T03:13:46.046Z,64.80
2018-08-27T03:16:14.426Z,67.30
2018-08-27T03:18:42.953Z,67.50
2018-08-27T03:21:11.330Z,68.50
2018-08-27T03:23:39.847Z,69.30
2018-08-27T03:26:08.303Z,69.40
2018-08-27T03:28:36.726Z,69.60
2018-08-27T03:31:05.199Z,69.80
2018-08-27T03:33:33.803Z,69.90
2018-08-27T03:36:02.162Z,70.30
2018-08-27T03:38:30.675Z,69.80
2018-08-27T03:40:59.018Z,69.40
2018-08-27T03:43:27.426Z,69.50
2018-08-27T03:45:55.820Z,69.40
2018-08-27T03:48:24.452Z,69.40
2018-08-27T03:50:52.932Z,69.70
2018-08-27T03:53:21.459Z,69.40
2018-08-27T03:55:49.807Z,69.30
2018-08-27T03:58:18.387Z,69.30
2018-08-27T04:00:46.773Z,69.40
2018-08-27T04:03:15.326Z,69.60
2018-08-27T04:05:43.697Z,69.60
2018-08-27T04:08:12.332Z,69.90
2018-08-27T04:10:40.747Z,69.70
2018-08-27T04:13:09.292Z,69.90
2018-08-27T04:15:37.748Z,69.90
2018-08-27T04:18:06.407Z,68.90
2018-08-27T04:20:34.814Z,69.20
2018-08-27T04:23:03.499Z,69.00
2018-08-27T04:25:32.015Z,69.20
2018-08-27T04:28:00.676Z,69.00
2018-08-27T04:30:29.026Z,69.10
2018-08-27T04:32:57.447Z,69.40
2018-08-27T04:35:25.819Z,69.70
2018-08-27T04:37:54.273Z,70.20
2018-08-27T04:40:22.754Z,70.80
2018-08-27T04:42:51.184Z,71.40
2018-08-27T04:45:19.540Z,72.10
2018-08-27T04:47:48.464Z,72.80
2018-08-27T04:50:16.779Z,73.70
2018-08-27T04:52:45.302Z,74.90
2018-08-27T04:55:13.668Z,75.00
2018-08-27T04:57:42.139Z,75.40
2018-08-27T05:00:14.385Z,76.10
2018-08-27T05:02:42.790Z,76.70
2018-08-27T05:05:11.112Z,76.80
2018-08-27T05:07:39.661Z,77.20
2018-08-27T05:10:08.091Z,77.60
2018-08-27T05:12:36.462Z,77.90
2018-08-27T05:15:04.868Z,78.70
2018-08-27T05:17:33.203Z,78.90
2018-08-27T05:20:01.651Z,79.20
2018-08-27T05:22:29.999Z,79.70
2018-08-27T05:24:58.399Z,79.80
2018-08-27T05:27:26.774Z,80.10
2018-08-27T05:29:55.170Z,80.10
2018-08-27T05:32:23.559Z,80.30
2018-08-27T05:34:51.947Z,80.30
2018-08-27T05:37:20.366Z,80.60
2018-08-27T05:39:48.782Z,80.70
2018-08-27T05:42:17.130Z,80.70
2018-08-27T05:44:45.542Z,80.90
2018-08-27T05:47:13.992Z,80.70
2018-08-27T05:49:42.343Z,81.30
2018-08-27T05:52:11.008Z,81.80
2018-08-27T05:54:39.321Z,82.10
2018-08-27T05:57:08.023Z,82.30
2018-08-27T05:59:36.411Z,82.20
2018-08-27T06:02:04.794Z,82.20
2018-08-27T06:04:33.191Z,82.50
2018-08-27T06:07:01.571Z,82.70
2018-08-27T06:09:29.950Z,82.70
2018-08-27T06:11:58.711Z,82.90
2018-08-27T06:14:27.071Z,83.10
2018-08-27T06:16:55.600Z,83.20
2018-08-27T06:19:23.981Z,83.50
2018-08-27T06:21:52.466Z,83.40
2018-08-27T06:24:21.316Z,83.90
2018-08-27T06:26:49.831Z,83.80
2018-08-27T06:29:18.188Z,83.90
2018-08-27T06:31:46.567Z,84.30
2018-08-27T06:34:14.906Z,84.60
2018-08-27T06:36:43.310Z,84.80
2018-08-27T06:39:11.668Z,84.90
2018-08-27T06:41:40.130Z,85.00
2018-08-27T06:44:08.703Z,85.10
2018-08-27T06:46:37.241Z,85.70
2018-08-27T06:49:05.893Z,85.60
2018-08-27T06:51:34.506Z,85.80
2018-08-27T06:54:03.051Z,86.10
2018-08-27T06:56:31.501Z,86.10
2018-08-27T06:59:00.284Z,86.10
2018-08-27T07:01:28.720Z,86.40
2018-08-27T07:03:57.112Z,86.80
2018-08-27T07:06:25.648Z,87.00
2018-08-27T07:08:54.270Z,86.60
2018-08-27T07:11:22.652Z,86.70
2018-08-27T07:13:51.454Z,87.20
2018-08-27T07:16:19.896Z,86.30
2018-08-27T07:18:48.478Z,86.50
2018-08-27T07:21:16.959Z,86.40
2018-08-27T07:23:45.371Z,86.50
2018-08-27T07:26:13.726Z,86.80
2018-08-27T07:28:42.176Z,86.40
2018-08-27T07:31:10.596Z,86.40
2018-08-27T07:33:39.059Z,86.90
2018-08-27T07:36:07.550Z,86.90
2018-08-27T07:38:35.911Z,86.90
2018-08-27T07:41:04.494Z,86.70
2018-08-27T07:43:33.101Z,86.70
2018-08-27T07:46:01.771Z,87.00
2018-08-27T07:48:30.174Z,86.80
2018-08-27T07:50:58.930Z,87.00
2018-08-27T07:53:27.581Z,87.20
2018-08-27T07:55:55.992Z,87.00
2018-08-27T07:58:24.563Z,87.30
2018-08-27T08:00:52.953Z,86.60
2018-08-27T08:03:21.290Z,86.40
2018-08-27T08:05:49.694Z,86.10
2018-08-27T08:08:18.099Z,86.10
2018-08-27T08:10:46.620Z,86.50
2018-08-27T08:13:15.007Z,86.60
2018-08-27T08:15:43.507Z,86.20
2018-08-27T08:18:18.509Z,86.50
2018-08-27T08:20:47.790Z,86.40
2018-08-27T08:23:16.999Z,85.90
2018-08-27T08:25:46.477Z,86.10
2018-08-27T08:28:14.907Z,86.10
2018-08-27T08:30:43.367Z,86.00
2018-08-27T08:33:11.888Z,86.50
2018-08-27T08:35:40.331Z,86.00
2018-08-27T08:38:08.825Z,86.20
2018-08-27T08:40:37.334Z,86.10
2018-08-27T08:43:06.115Z,86.20
2018-08-27T08:45:34.622Z,86.30
2018-08-27T08:48:03.206Z,86.30
2018-08-27T08:50:31.634Z,86.30
2018-08-27T08:53:00.027Z,86.40
2018-08-27T08:55:28.482Z,86.10
2018-08-27T08:57:56.855Z,85.80
2018-08-27T09:00:25.287Z,85.60
2018-08-27T09:02:53.791Z,85.70
2018-08-27T09:05:22.261Z,85.60
2018-08-27T09:07:50.746Z,86.00
2018-08-27T09:10:19.222Z,86.10
2018-08-27T09:12:47.631Z,86.10
2018-08-27T09:15:15.992Z,86.40
2018-08-27T09:17:44.585Z,86.20
2018-08-27T09:20:12.972Z,86.00
2018-08-27T09:22:41.379Z,86.00
2018-08-27T09:25:10.103Z,85.80
2018-08-27T09:27:38.527Z,85.90
2018-08-27T09:30:08.023Z,85.60
2018-08-27T09:32:36.493Z,85.80
2018-08-27T09:35:05.049Z,85.40
2018-08-27T09:37:33.779Z,85.40
2018-08-27T09:40:02.138Z,85.20
2018-08-27T09:42:30.812Z,85.20
2018-08-27T09:44:59.208Z,85.10
2018-08-27T09:47:29.917Z,85.20
2018-08-27T09:49:58.308Z,85.10
2018-08-27T09:52:26.695Z,85.20
2018-08-27T09:54:55.063Z,85.50
2018-08-27T09:57:23.568Z,85.30
2018-08-27T09:59:51.932Z,85.20
2018-08-27T10:02:20.382Z,85.40
2018-08-27T10:04:48.761Z,85.80
2018-08-27T10:07:17.289Z,86.30
2018-08-27T10:09:45.724Z,86.30
2018-08-27T10:12:14.305Z,86.00
2018-08-27T10:14:42.786Z,86.20
2018-08-27T10:17:11.265Z,86.40
2018-08-27T10:19:39.828Z,86.40
2018-08-27T10:22:08.368Z,86.60
2018-08-27T10:24:36.761Z,86.60
2018-08-27T10:27:05.227Z,86.30
2018-08-27T10:29:33.757Z,86.00
2018-08-27T10:32:02.411Z,86.20
2018-08-27T10:34:30.763Z,86.10
2018-08-27T10:36:59.279Z,86.30
2018-08-27T10:39:27.733Z,86.00
2018-08-27T10:41:56.355Z,86.10
2018-08-27T10:44:25.110Z,86.00
2018-08-27T10:46:53.612Z,86.40
2018-08-27T10:49:22.032Z,86.40
2018-08-27T10:51:57.328Z,87.10
2018-08-27T10:54:25.724Z,86.70
2018-08-27T10:56:54.226Z,86.80
2018-08-27T10:59:22.782Z,85.90
2018-08-27T11:01:51.328Z,84.90
2018-08-27T11:04:19.769Z,84.70
2018-08-27T11:06:48.259Z,84.60
2018-08-27T11:09:16.648Z,84.40
2018-08-27T11:11:45.004Z,84.90
2018-08-27T11:14:13.435Z,83.90
2018-08-27T11:16:41.783Z,83.60
2018-08-27T11:19:10.242Z,83.50
2018-08-27T11:21:38.738Z,84.00
2018-08-27T11:24:12.533Z,83.80
2018-08-27T11:26:46.854Z,82.00
2018-08-27T11:29:16.965Z,81.80
2018-08-27T11:31:45.584Z,80.70
2018-08-27T11:34:13.944Z,80.70
2018-08-27T11:36:42.343Z,80.40
2018-08-27T11:39:12.343Z,80.30
2018-08-27T11:41:40.734Z,80.50
2018-08-27T11:44:09.183Z,79.00
2018-08-27T11:46:37.696Z,77.40
2018-08-27T11:49:06.079Z,76.80
2018-08-27T11:51:35.508Z,75.60
2018-08-27T11:54:04.060Z,75.80
2018-08-27T11:56:32.490Z,76.00
2018-08-27T11:59:00.960Z,76.40
2018-08-27T12:01:29.884Z,74.30
2018-08-27T12:03:58.221Z,73.70
2018-08-27T12:06:26.694Z,73.00
2018-08-27T12:08:55.161Z,71.70
2018-08-27T12:11:23.494Z,68.50
2018-08-27T12:13:51.878Z,66.30
2018-08-27T12:16:20.292Z,64.90
2018-08-27T12:18:48.650Z,63.40
2018-08-27T12:21:17.054Z,63.20
2018-08-27T12:23:45.582Z,63.30
2018-08-27T12:26:14.003Z,63.20
2018-08-27T12:28:42.552Z,61.80
2018-08-27T12:31:11.295Z,60.20
2018-08-27T12:33:39.768Z,59.10
2018-08-27T12:36:08.244Z,57.30
2018-08-27T12:38:36.663Z,57.20
2018-08-27T12:41:05.208Z,55.20
2018-08-27T12:43:33.562Z,55.00
2018-08-27T12:46:01.917Z,52.10
2018-08-27T12:48:30.293Z,51.90
2018-08-27T12:50:58.848Z,51.60
2018-08-27T12:53:27.147Z,51.40
2018-08-27T12:55:55.623Z,50.30
2018-08-27T12:58:24.438Z,50.80
2018-08-27T13:00:52.752Z,50.50
2018-08-27T13:03:21.209Z,50.60
2018-08-27T13:05:49.666Z,50.40
2018-08-27T13:08:18.343Z,50.20
2018-08-27T13:10:46.701Z,50.70
2018-08-27T13:13:15.175Z,52.10
2018-08-27T13:15:43.589Z,52.60
2018-08-27T13:18:11.979Z,52.80
2018-08-27T13:20:40.359Z,53.30
2018-08-27T13:23:08.863Z,54.00
2018-08-27T13:25:37.375Z,54.90
2018-08-27T13:28:06.077Z,54.80
2018-08-27T13:30:34.539Z,55.30
2018-08-27T13:33:02.936Z,55.00
2018-08-27T13:35:31.471Z,54.30
2018-08-27T13:38:00.222Z,54.50
2018-08-27T13:40:28.661Z,54.90
2018-08-27T13:42:57.066Z,55.80
2018-08-27T13:45:25.546Z,56.00
2018-08-27T13:47:53.929Z,56.50
2018-08-27T13:50:22.311Z,57.00
2018-08-27T13:52:50.806Z,56.90
2018-08-27T13:55:19.302Z,57.20
2018-08-27T13:57:47.642Z,57.80
2018-08-27T14:00:23.261Z,57.10
2018-08-27T14:02:52.489Z,56.50
2018-08-27T14:05:21.207Z,55.50
2018-08-27T14:07:49.536Z,54.80
2018-08-27T14:10:18.028Z,54.20
2018-08-27T14:12:46.564Z,54.40
2018-08-27T14:15:15.249Z,54.30
2018-08-27T14:17:43.515Z,53.80
2018-08-27T14:20:12.287Z,54.10
2018-08-27T14:22:40.753Z,54.00
2018-08-27T14:25:09.257Z,53.20
2018-08-27T14:27:37.635Z,51.70
2018-08-27T14:30:06.789Z,51.50
2018-08-27T14:32:35.339Z,52.30
2018-08-27T14:35:03.971Z,52.90
2018-08-27T14:37:32.376Z,53.70
2018-08-27T14:40:00.810Z,53.90
2018-08-27T14:42:29.368Z,53.80
2018-08-27T14:44:57.919Z,54.00
2018-08-27T14:47:26.277Z,54.10
2018-08-27T14:49:54.761Z,54.60
2018-08-27T14:52:23.142Z,53.40
2018-08-27T14:54:51.563Z,52.20
2018-08-27T14:57:19.993Z,52.30
2018-08-27T14:59:48.464Z,52.20
2018-08-27T15:02:16.891Z,51.50
2018-08-27T15:04:45.254Z,51.90
2018-08-27T15:07:13.602Z,52.10
2018-08-27T15:09:42.205Z,51.60
2018-08-27T15:12:10.676Z,50.20
2018-08-27T15:14:39.242Z,49.70
2018-08-27T15:17:07.638Z,49.50
2018-08-27T15:19:36.036Z,50.00
2018-08-27T15:22:05.192Z,49.60
2018-08-27T15:24:33.704Z,50.40
2018-08-27T15:27:02.197Z,49.90
2018-08-27T15:29:30.688Z,50.20
2018-08-27T15:31:59.122Z,50.10
2018-08-27T15:34:27.534Z,50.60
2018-08-27T15:36:55.919Z,50.80
2018-08-27T15:39:24.462Z,50.90
2018-08-27T15:41:52.856Z,51.00
2018-08-27T15:44:21.338Z,51.20
2018-08-27T15:46:49.699Z,51.50
2018-08-27T15:49:18.190Z,51.50
2018-08-27T15:51:47.334Z,51.50
2018-08-27T15:54:15.824Z,51.90
2018-08-27T15:56:44.235Z,52.20
2018-08-27T15:59:12.639Z,52.40
2018-08-27T16:01:46.250Z,52.90
2018-08-27T16:04:14.825Z,53.40
2018-08-27T16:06:43.196Z,53.70
2018-08-27T16:09:11.591Z,53.50
2018-08-27T16:11:39.992Z,53.80
2018-08-27T16:14:08.504Z,54.40
2018-08-27T16:16:36.877Z,53.90
2018-08-27T16:19:05.422Z,54.20
2018-08-27T16:21:33.817Z,53.60
2018-08-27T16:24:02.316Z,53.80
2018-08-27T16:26:30.774Z,53.90
2018-08-27T16:28:59.200Z,54.90
2018-08-27T16:31:27.751Z,55.10
2018-08-27T16:33:56.138Z,55.30
2018-08-27T16:36:24.671Z,55.80
2018-08-27T16:38:53.045Z,55.80
2018-08-27T16:41:21.489Z,55.80
2018-08-27T16:43:49.878Z,55.40
2018-08-27T16:46:18.992Z,55.80
2018-08-27T16:48:47.454Z,55.70
2018-08-27T16:51:15.835Z,55.80
2018-08-27T16:53:44.325Z,55.90
2018-08-27T16:56:13.178Z,55.40
2018-08-27T16:58:41.618Z,55.30
2018-08-27T17:01:10.036Z,55.40
2018-08-27T17:03:38.436Z,55.60
2018-08-27T17:06:07.150Z,55.50
2018-08-27T17:08:35.543Z,55.70
2018-08-27T17:11:04.103Z,55.90
2018-08-27T17:13:32.418Z,55.70
2018-08-27T17:16:00.801Z,55.70
2018-08-27T17:18:29.322Z,55.20
2018-08-27T17:20:57.891Z,55.30
2018-08-27T17:23:26.297Z,55.20
2018-08-27T17:25:55.225Z,55.10
2018-08-27T17:28:23.594Z,55.20
2018-08-27T17:30:51.952Z,55.40
2018-08-27T17:33:20.335Z,55.50
2018-08-27T17:35:48.688Z,55.20
2018-08-27T17:38:17.068Z,55.20
2018-08-27T17:40:45.501Z,55.00
2018-08-27T17:43:14.007Z,55.20
2018-08-27T17:45:42.530Z,55.30
2018-08-27T17:48:10.847Z,55.40
2018-08-27T17:50:40.310Z,55.40
2018-08-27T17:53:08.672Z,55.50
2018-08-27T17:55:37.081Z,55.60
2018-08-27T17:58:05.479Z,55.70
2018-08-27T18:00:33.998Z,55.70
2018-08-27T18:03:02.615Z,55.70
2018-08-27T18:05:31.072Z,55.80
2018-08-27T18:07:59.534Z,55.90
2018-08-27T18:10:27.911Z,56.20
2018-08-27T18:12:56.581Z,56.30
2018-08-27T18:15:25.006Z,56.40
2018-08-27T18:17:53.438Z,56.50
2018-08-27T18:20:22.187Z,56.80
2018-08-27T18:22:51.013Z,57.10
2018-08-27T18:25:19.562Z,57.10
2018-08-27T18:27:47.987Z,57.10
2018-08-27T18:30:16.775Z,57.10
2018-08-27T18:32:45.311Z,57.40
2018-08-27T18:35:14.125Z,57.30
2018-08-27T18:37:43.139Z,57.40
2018-08-27T18:40:11.585Z,57.50
2018-08-27T18:42:40.304Z,57.40
2018-08-27T18:45:09.320Z,57.70
2018-08-27T18:47:37.787Z,57.70
2018-08-27T18:50:06.368Z,57.70
2018-08-27T18:52:35.151Z,57.70
2018-08-27T18:55:03.712Z,57.70
2018-08-27T18:57:32.627Z,57.80
2018-08-27T19:00:01.413Z,57.90
2018-08-27T19:02:30.196Z,58.00
2018-08-27T19:04:58.985Z,58.00
2018-08-27T19:07:29.407Z,58.50
2018-08-27T19:09:58.302Z,58.10
2018-08-27T19:12:27.249Z,58.10
2018-08-27T19:14:56.186Z,58.20
2018-08-27T19:17:25.071Z,58.00
2018-08-27T19:19:53.861Z,58.20
2018-08-27T19:22:22.954Z,58.20
2018-08-27T19:24:51.855Z,58.30
2018-08-27T19:27:20.635Z,58.60
2018-08-27T19:29:49.630Z,58.70
2018-08-27T19:32:18.520Z,58.70
2018-08-27T19:34:47.309Z,58.90
2018-08-27T19:37:16.236Z,59.00
2018-08-27T19:39:44.882Z,59.10
2018-08-27T19:42:13.780Z,59.20
2018-08-27T19:44:42.554Z,59.40
2018-08-27T19:47:11.683Z,59.30
2018-08-27T19:49:40.450Z,59.20
2018-08-27T19:52:08.884Z,59.40
2018-08-27T19:54:37.341Z,59.40
2018-08-27T19:57:05.774Z,59.40
2018-08-27T19:59:34.120Z,59.50
2018-08-27T20:02:02.791Z,59.50
2018-08-27T20:04:31.189Z,59.50
2018-08-27T20:06:59.659Z,59.40
2018-08-27T20:09:28.151Z,59.40
2018-08-27T20:11:56.612Z,59.40
2018-08-27T20:14:25.020Z,59.40
2018-08-27T20:16:53.566Z,59.40
2018-08-27T20:19:21.963Z,59.30
2018-08-27T20:21:50.410Z,59.30
2018-08-27T20:24:18.824Z,59.40
2018-08-27T20:26:47.190Z,59.40
2018-08-27T20:29:15.677Z,59.30
2018-08-27T20:31:44.323Z,59.10
2018-08-27T20:34:12.784Z,59.70
2018-08-27T20:36:41.210Z,59.20
2018-08-27T20:39:10.749Z,59.30
2018-08-27T20:41:39.802Z,59.60
2018-08-27T20:44:08.602Z,59.60
2018-08-27T20:46:37.482Z,59.80
2018-08-27T20:49:06.198Z,59.80
2018-08-27T20:51:34.807Z,59.70
2018-08-27T20:54:03.234Z,59.80
2018-08-27T20:56:31.712Z,59.90
2018-08-27T20:59:00.091Z,60.20
2018-08-27T21:01:28.503Z,60.60
2018-08-27T21:03:57.018Z,60.00
2018-08-27T21:06:25.466Z,60.10
2018-08-27T21:08:53.858Z,60.20
2018-08-27T21:11:22.290Z,60.30
2018-08-27T21:13:50.726Z,60.40
2018-08-27T21:16:19.610Z,60.50
2018-08-27T21:18:48.113Z,60.40
2018-08-27T21:21:16.519Z,60.20
2018-08-27T21:23:44.976Z,60.30
2018-08-27T21:26:13.388Z,60.60
2018-08-27T21:28:41.834Z,60.50
2018-08-27T21:31:10.347Z,60.60
2018-08-27T21:33:38.897Z,60.50
2018-08-27T21:36:07.341Z,60.50
2018-08-27T21:38:35.703Z,60.60
2018-08-27T21:41:04.246Z,60.70
2018-08-27T21:43:32.591Z,60.60
2018-08-27T21:46:01.011Z,60.60
2018-08-27T21:48:29.383Z,60.50
2018-08-27T21:50:57.762Z,60.40
2018-08-27T21:53:26.303Z,60.60
2018-08-27T21:55:54.726Z,60.70
2018-08-27T21:58:23.264Z,60.60
2018-08-27T22:00:56.064Z,60.70
2018-08-27T22:03:29.995Z,60.40
2018-08-27T22:05:58.487Z,60.50
2018-08-27T22:08:26.900Z,60.40
2018-08-27T22:10:55.394Z,60.30
2018-08-27T22:13:23.785Z,60.30
2018-08-27T22:15:52.898Z,60.20
2018-08-27T22:18:21.380Z,60.30
2018-08-27T22:20:49.872Z,60.20
2018-08-27T22:23:18.211Z,60.30
2018-08-27T22:27:05.951Z,60.20
2018-08-27T22:29:34.414Z,60.00
2018-08-27T22:32:03.875Z,60.30
2018-08-27T22:34:32.556Z,60.40
2018-08-27T22:37:00.987Z,60.60
2018-08-27T22:39:29.370Z,60.40
2018-08-27T22:41:57.891Z,60.40
2018-08-27T22:44:26.268Z,60.50
2018-08-27T22:46:54.813Z,60.60
2018-08-27T22:49:23.345Z,60.30
2018-08-27T22:51:51.876Z,60.60
2018-08-27T22:54:20.236Z,60.60
2018-08-27T22:56:48.740Z,60.30
2018-08-27T22:59:17.212Z,60.30
2018-08-27T23:01:45.706Z,60.40
2018-08-27T23:04:19.589Z,60.40
2018-08-27T23:06:47.947Z,60.30
2018-08-27T23:09:16.355Z,60.20
2018-08-27T23:11:44.743Z,60.30
2018-08-27T23:14:13.150Z,60.20
2018-08-27T23:16:41.507Z,60.20
2018-08-27T23:19:09.891Z,60.00
2018-08-27T23:21:38.285Z,60.20
2018-08-27T23:24:06.712Z,60.20
2018-08-27T23:26:35.075Z,60.20
2018-08-27T23:29:03.608Z,60.50
2018-08-27T23:31:32.008Z,60.30
2018-08-27T23:34:00.387Z,60.30
2018-08-27T23:36:28.870Z,60.30
2018-08-27T23:38:57.265Z,60.80
2018-08-27T23:41:25.675Z,60.70
2018-08-27T23:43:54.046Z,61.40
2018-08-27T23:46:22.415Z,61.00
2018-08-27T23:48:50.803Z,61.10
2018-08-27T23:51:19.183Z,61.10
2018-08-27T23:53:47.658Z,61.30
2018-08-27T23:56:16.032Z,61.30
2018-08-27T23:58:44.403Z,61.20
